sensor_id;sensor_type;location;lat;lon;timestamp;P1;durP1;ratioP1;P2;durP2;ratioP2
53409;SDS011;66590;50.734;4.246;2023-11-19T00:00:22;7.43;;;5.28;;
53409;SDS011;66590;50.734;4.246;2023-11-19T00:02:57;7.47;;;4.40;;
53409;SDS011;66590;50.734;4.246;2023-11-19T00:05:31;9.45;;;5.03;;
53409;SDS011;66590;50.734;4.246;2023-11-19T00:08:05;8.40;;;4.57;;
53409;SDS011;66590;50.734;4.246;2023-11-19T00:10:38;7.60;;;4.10;;
53409;SDS011;66590;50.734;4.246;2023-11-19T00:13:04;7.60;;;4.15;;
53409;SDS011;66590;50.734;4.246;2023-11-19T00:15:37;11.30;;;4.53;;
53409;SDS011;66590;50.734;4.246;2023-11-19T00:18:06;11.25;;;4.57;;
53409;SDS011;66590;50.734;4.246;2023-11-19T00:20:40;15.40;;;4.88;;
53409;SDS011;66590;50.734;4.246;2023-11-19T00:23:06;12.63;;;4.40;;
53409;SDS011;66590;50.734;4.246;2023-11-19T00:25:33;11.20;;;4.55;;
53409;SDS011;66590;50.734;4.246;2023-11-19T00:28:06;13.82;;;4.47;;
53409;SDS011;66590;50.734;4.246;2023-11-19T00:30:33;9.40;;;4.40;;
53409;SDS011;66590;50.734;4.246;2023-11-19T00:33:08;11.07;;;3.78;;
53409;SDS011;66590;50.734;4.246;2023-11-19T00:35:35;9.40;;;4.53;;
53409;SDS011;66590;50.734;4.246;2023-11-19T00:38:15;12.98;;;3.95;;
53409;SDS011;66590;50.734;4.246;2023-11-19T00:40:42;11.13;;;3.90;;
53409;SDS011;66590;50.734;4.246;2023-11-19T00:43:16;10.40;;;3.58;;
53409;SDS011;66590;50.734;4.246;2023-11-19T00:45:43;11.77;;;3.97;;
53409;SDS011;66590;50.734;4.246;2023-11-19T00:48:18;9.00;;;3.72;;
53409;SDS011;66590;50.734;4.246;2023-11-19T00:50:45;13.93;;;3.75;;
53409;SDS011;66590;50.734;4.246;2023-11-19T00:53:18;10.98;;;3.30;;
53409;SDS011;66590;50.734;4.246;2023-11-19T00:55:51;13.15;;;3.90;;
53409;SDS011;66590;50.734;4.246;2023-11-19T00:58:18;14.20;;;3.95;;
53409;SDS011;66590;50.734;4.246;2023-11-19T01:00:52;13.20;;;4.28;;
53409;SDS011;66590;50.734;4.246;2023-11-19T01:03:20;17.17;;;3.85;;
53409;SDS011;66590;50.734;4.246;2023-11-19T01:05:54;13.57;;;3.30;;
53409;SDS011;66590;50.734;4.246;2023-11-19T01:08:20;15.95;;;3.60;;
53409;SDS011;66590;50.734;4.246;2023-11-19T01:10:53;18.10;;;4.35;;
53409;SDS011;66590;50.734;4.246;2023-11-19T01:13:26;17.83;;;3.90;;
53409;SDS011;66590;50.734;4.246;2023-11-19T01:15:53;14.10;;;3.35;;
53409;SDS011;66590;50.734;4.246;2023-11-19T01:18:28;14.88;;;3.67;;
53409;SDS011;66590;50.734;4.246;2023-11-19T01:20:55;13.48;;;3.88;;
53409;SDS011;66590;50.734;4.246;2023-11-19T01:23:28;18.98;;;3.75;;
53409;SDS011;66590;50.734;4.246;2023-11-19T01:25:55;10.63;;;3.22;;
53409;SDS011;66590;50.734;4.246;2023-11-19T01:28:28;13.45;;;3.45;;
53409;SDS011;66590;50.734;4.246;2023-11-19T01:31:01;15.77;;;4.63;;
53409;SDS011;66590;50.734;4.246;2023-11-19T01:33:37;8.60;;;2.90;;
53409;SDS011;66590;50.734;4.246;2023-11-19T01:36:04;9.68;;;3.42;;
53409;SDS011;66590;50.734;4.246;2023-11-19T01:38:45;13.50;;;3.10;;
53409;SDS011;66590;50.734;4.246;2023-11-19T01:41:12;12.90;;;4.35;;
53409;SDS011;66590;50.734;4.246;2023-11-19T01:43:45;12.50;;;3.17;;
53409;SDS011;66590;50.734;4.246;2023-11-19T01:46:12;21.45;;;3.80;;
53409;SDS011;66590;50.734;4.246;2023-11-19T01:48:47;16.67;;;3.03;;
53409;SDS011;66590;50.734;4.246;2023-11-19T01:51:21;17.02;;;4.03;;
53409;SDS011;66590;50.734;4.246;2023-11-19T01:53:55;17.80;;;3.77;;
53409;SDS011;66590;50.734;4.246;2023-11-19T01:56:23;18.15;;;3.53;;
53409;SDS011;66590;50.734;4.246;2023-11-19T01:58:58;16.25;;;3.97;;
53409;SDS011;66590;50.734;4.246;2023-11-19T02:01:26;15.93;;;3.90;;
53409;SDS011;66590;50.734;4.246;2023-11-19T02:04:02;15.95;;;2.88;;
53409;SDS011;66590;50.734;4.246;2023-11-19T02:06:36;13.93;;;3.30;;
53409;SDS011;66590;50.734;4.246;2023-11-19T02:09:12;20.42;;;4.30;;
53409;SDS011;66590;50.734;4.246;2023-11-19T02:11:39;18.42;;;4.00;;
53409;SDS011;66590;50.734;4.246;2023-11-19T02:14:06;36.13;;;4.55;;
53409;SDS011;66590;50.734;4.246;2023-11-19T02:16:39;17.42;;;4.00;;
53409;SDS011;66590;50.734;4.246;2023-11-19T02:19:08;17.08;;;3.72;;
53409;SDS011;66590;50.734;4.246;2023-11-19T02:21:42;19.33;;;3.95;;
53409;SDS011;66590;50.734;4.246;2023-11-19T02:24:09;15.10;;;3.20;;
53409;SDS011;66590;50.734;4.246;2023-11-19T02:26:46;14.30;;;3.20;;
53409;SDS011;66590;50.734;4.246;2023-11-19T02:29:26;14.82;;;3.08;;
53409;SDS011;66590;50.734;4.246;2023-11-19T02:31:59;15.93;;;3.67;;
53409;SDS011;66590;50.734;4.246;2023-11-19T02:34:33;10.35;;;2.80;;
53409;SDS011;66590;50.734;4.246;2023-11-19T02:37:06;14.68;;;3.45;;
53409;SDS011;66590;50.734;4.246;2023-11-19T02:39:33;19.23;;;3.60;;
53409;SDS011;66590;50.734;4.246;2023-11-19T02:42:06;17.08;;;3.08;;
53409;SDS011;66590;50.734;4.246;2023-11-19T02:44:44;11.07;;;3.50;;
53409;SDS011;66590;50.734;4.246;2023-11-19T02:47:17;15.30;;;3.47;;
53409;SDS011;66590;50.734;4.246;2023-11-19T02:49:44;18.00;;;4.35;;
53409;SDS011;66590;50.734;4.246;2023-11-19T02:52:18;11.32;;;2.90;;
53409;SDS011;66590;50.734;4.246;2023-11-19T02:54:44;16.48;;;3.47;;
53409;SDS011;66590;50.734;4.246;2023-11-19T02:57:17;15.02;;;4.03;;
53409;SDS011;66590;50.734;4.246;2023-11-19T02:59:49;16.88;;;3.88;;
53409;SDS011;66590;50.734;4.246;2023-11-19T03:04:49;16.23;;;3.83;;
53409;SDS011;66590;50.734;4.246;2023-11-19T03:07:16;16.73;;;3.95;;
53409;SDS011;66590;50.734;4.246;2023-11-19T03:09:49;19.40;;;4.57;;
53409;SDS011;66590;50.734;4.246;2023-11-19T03:12:23;14.73;;;3.72;;
53409;SDS011;66590;50.734;4.246;2023-11-19T03:14:51;19.95;;;4.22;;
53409;SDS011;66590;50.734;4.246;2023-11-19T03:17:25;19.33;;;4.18;;
53409;SDS011;66590;50.734;4.246;2023-11-19T03:19:51;15.93;;;3.80;;
53409;SDS011;66590;50.734;4.246;2023-11-19T03:22:24;17.90;;;3.65;;
53409;SDS011;66590;50.734;4.246;2023-11-19T03:24:58;20.70;;;4.20;;
53409;SDS011;66590;50.734;4.246;2023-11-19T03:27:25;20.10;;;4.28;;
53409;SDS011;66590;50.734;4.246;2023-11-19T03:30:00;22.90;;;3.67;;
53409;SDS011;66590;50.734;4.246;2023-11-19T03:32:27;22.08;;;4.45;;
53409;SDS011;66590;50.734;4.246;2023-11-19T03:35:01;20.58;;;4.38;;
53409;SDS011;66590;50.734;4.246;2023-11-19T03:37:28;20.23;;;4.97;;
53409;SDS011;66590;50.734;4.246;2023-11-19T03:40:00;22.63;;;4.07;;
53409;SDS011;66590;50.734;4.246;2023-11-19T03:42:34;23.98;;;4.32;;
53409;SDS011;66590;50.734;4.246;2023-11-19T03:45:09;14.70;;;4.35;;
53409;SDS011;66590;50.734;4.246;2023-11-19T03:47:36;24.98;;;4.03;;
53409;SDS011;66590;50.734;4.246;2023-11-19T03:50:10;20.02;;;4.07;;
53409;SDS011;66590;50.734;4.246;2023-11-19T03:52:36;18.83;;;4.28;;
53409;SDS011;66590;50.734;4.246;2023-11-19T03:55:10;23.50;;;3.97;;
53409;SDS011;66590;50.734;4.246;2023-11-19T03:57:37;18.38;;;3.75;;
53409;SDS011;66590;50.734;4.246;2023-11-19T04:00:13;24.55;;;4.25;;
53409;SDS011;66590;50.734;4.246;2023-11-19T04:02:41;21.05;;;4.00;;
53409;SDS011;66590;50.734;4.246;2023-11-19T04:05:15;19.27;;;4.70;;
53409;SDS011;66590;50.734;4.246;2023-11-19T04:07:48;21.92;;;3.90;;
53409;SDS011;66590;50.734;4.246;2023-11-19T04:10:21;16.83;;;3.78;;
53409;SDS011;66590;50.734;4.246;2023-11-19T04:12:49;23.50;;;4.45;;
53409;SDS011;66590;50.734;4.246;2023-11-19T04:15:24;23.58;;;4.00;;
53409;SDS011;66590;50.734;4.246;2023-11-19T04:17:51;18.50;;;3.78;;
53409;SDS011;66590;50.734;4.246;2023-11-19T04:20:25;24.20;;;4.25;;
53409;SDS011;66590;50.734;4.246;2023-11-19T04:22:52;21.30;;;4.40;;
53409;SDS011;66590;50.734;4.246;2023-11-19T04:25:18;19.75;;;4.60;;
53409;SDS011;66590;50.734;4.246;2023-11-19T04:27:52;25.58;;;4.60;;
53409;SDS011;66590;50.734;4.246;2023-11-19T04:30:27;23.40;;;5.05;;
53409;SDS011;66590;50.734;4.246;2023-11-19T04:33:01;24.77;;;4.32;;
53409;SDS011;66590;50.734;4.246;2023-11-19T04:35:28;26.20;;;4.18;;
53409;SDS011;66590;50.734;4.246;2023-11-19T04:38:00;21.80;;;3.90;;
53409;SDS011;66590;50.734;4.246;2023-11-19T04:40:27;26.52;;;5.40;;
53409;SDS011;66590;50.734;4.246;2023-11-19T04:43:01;21.08;;;4.35;;
53409;SDS011;66590;50.734;4.246;2023-11-19T04:45:29;21.95;;;3.67;;
53409;SDS011;66590;50.734;4.246;2023-11-19T04:47:56;19.67;;;4.45;;
53409;SDS011;66590;50.734;4.246;2023-11-19T04:50:30;22.40;;;4.30;;
53409;SDS011;66590;50.734;4.246;2023-11-19T04:53:02;27.67;;;5.22;;
53409;SDS011;66590;50.734;4.246;2023-11-19T04:55:29;18.80;;;3.85;;
53409;SDS011;66590;50.734;4.246;2023-11-19T04:58:03;22.95;;;4.47;;
53409;SDS011;66590;50.734;4.246;2023-11-19T05:00:37;24.55;;;4.13;;
53409;SDS011;66590;50.734;4.246;2023-11-19T05:03:04;22.65;;;4.22;;
53409;SDS011;66590;50.734;4.246;2023-11-19T05:05:38;28.80;;;4.22;;
53409;SDS011;66590;50.734;4.246;2023-11-19T05:08:05;20.90;;;4.47;;
53409;SDS011;66590;50.734;4.246;2023-11-19T05:10:38;23.30;;;4.03;;
53409;SDS011;66590;50.734;4.246;2023-11-19T05:13:05;25.83;;;4.80;;
53409;SDS011;66590;50.734;4.246;2023-11-19T05:15:40;25.23;;;4.70;;
53409;SDS011;66590;50.734;4.246;2023-11-19T05:18:13;20.75;;;4.07;;
53409;SDS011;66590;50.734;4.246;2023-11-19T05:20:47;24.92;;;4.80;;
53409;SDS011;66590;50.734;4.246;2023-11-19T05:23:14;23.75;;;4.28;;
53409;SDS011;66590;50.734;4.246;2023-11-19T05:25:47;28.95;;;5.35;;
53409;SDS011;66590;50.734;4.246;2023-11-19T05:28:20;27.13;;;5.22;;
53409;SDS011;66590;50.734;4.246;2023-11-19T05:30:55;24.52;;;4.93;;
53409;SDS011;66590;50.734;4.246;2023-11-19T05:33:22;30.05;;;6.18;;
53409;SDS011;66590;50.734;4.246;2023-11-19T05:35:49;27.00;;;4.47;;
53409;SDS011;66590;50.734;4.246;2023-11-19T05:38:23;30.23;;;4.90;;
53409;SDS011;66590;50.734;4.246;2023-11-19T05:40:49;28.52;;;5.35;;
53409;SDS011;66590;50.734;4.246;2023-11-19T05:43:22;28.75;;;5.50;;
53409;SDS011;66590;50.734;4.246;2023-11-19T05:45:57;22.50;;;5.10;;
53409;SDS011;66590;50.734;4.246;2023-11-19T05:48:45;22.40;;;4.90;;
53409;SDS011;66590;50.734;4.246;2023-11-19T05:51:12;24.30;;;4.97;;
53409;SDS011;66590;50.734;4.246;2023-11-19T05:53:46;30.08;;;5.40;;
53409;SDS011;66590;50.734;4.246;2023-11-19T05:56:18;25.25;;;5.28;;
53409;SDS011;66590;50.734;4.246;2023-11-19T05:58:45;26.00;;;4.60;;
53409;SDS011;66590;50.734;4.246;2023-11-19T06:01:20;28.45;;;4.63;;
53409;SDS011;66590;50.734;4.246;2023-11-19T06:03:54;24.77;;;4.30;;
53409;SDS011;66590;50.734;4.246;2023-11-19T06:06:27;28.10;;;4.80;;
53409;SDS011;66590;50.734;4.246;2023-11-19T06:08:55;25.70;;;5.50;;
53409;SDS011;66590;50.734;4.246;2023-11-19T06:11:38;23.02;;;4.22;;
53409;SDS011;66590;50.734;4.246;2023-11-19T06:14:06;25.17;;;4.90;;
53409;SDS011;66590;50.734;4.246;2023-11-19T06:16:41;20.40;;;4.55;;
53409;SDS011;66590;50.734;4.246;2023-11-19T06:19:15;30.50;;;5.22;;
53409;SDS011;66590;50.734;4.246;2023-11-19T06:21:49;36.33;;;5.85;;
53409;SDS011;66590;50.734;4.246;2023-11-19T06:24:15;27.17;;;4.78;;
53409;SDS011;66590;50.734;4.246;2023-11-19T06:26:49;28.70;;;4.53;;
53409;SDS011;66590;50.734;4.246;2023-11-19T06:29:15;19.17;;;3.75;;
53409;SDS011;66590;50.734;4.246;2023-11-19T06:31:50;25.48;;;5.10;;
53409;SDS011;66590;50.734;4.246;2023-11-19T06:34:17;18.38;;;4.45;;
53409;SDS011;66590;50.734;4.246;2023-11-19T06:36:51;33.28;;;4.95;;
53409;SDS011;66590;50.734;4.246;2023-11-19T06:39:18;34.40;;;5.53;;
53409;SDS011;66590;50.734;4.246;2023-11-19T06:41:45;26.55;;;5.10;;
53409;SDS011;66590;50.734;4.246;2023-11-19T06:44:19;26.80;;;4.50;;
53409;SDS011;66590;50.734;4.246;2023-11-19T06:46:53;27.80;;;5.40;;
53409;SDS011;66590;50.734;4.246;2023-11-19T06:49:27;30.85;;;5.20;;
53409;SDS011;66590;50.734;4.246;2023-11-19T06:51:54;27.45;;;5.18;;
53409;SDS011;66590;50.734;4.246;2023-11-19T06:54:21;39.28;;;5.93;;
53409;SDS011;66590;50.734;4.246;2023-11-19T06:56:53;24.05;;;4.55;;
53409;SDS011;66590;50.734;4.246;2023-11-19T06:59:20;28.90;;;5.47;;
53409;SDS011;66590;50.734;4.246;2023-11-19T07:01:55;32.97;;;5.25;;
53409;SDS011;66590;50.734;4.246;2023-11-19T07:04:22;31.55;;;5.30;;
53409;SDS011;66590;50.734;4.246;2023-11-19T07:06:49;30.67;;;5.18;;
53409;SDS011;66590;50.734;4.246;2023-11-19T07:09:23;27.98;;;5.00;;
53409;SDS011;66590;50.734;4.246;2023-11-19T07:11:49;20.02;;;4.07;;
53409;SDS011;66590;50.734;4.246;2023-11-19T07:14:23;27.25;;;5.75;;
53409;SDS011;66590;50.734;4.246;2023-11-19T07:16:50;29.67;;;5.35;;
53409;SDS011;66590;50.734;4.246;2023-11-19T07:19:18;32.63;;;4.47;;
53409;SDS011;66590;50.734;4.246;2023-11-19T07:24:25;28.35;;;5.70;;
53409;SDS011;66590;50.734;4.246;2023-11-19T07:26:51;28.80;;;4.85;;
53409;SDS011;66590;50.734;4.246;2023-11-19T07:29:25;29.95;;;4.70;;
53409;SDS011;66590;50.734;4.246;2023-11-19T07:31:58;26.77;;;5.18;;
53409;SDS011;66590;50.734;4.246;2023-11-19T07:34:33;30.30;;;5.45;;
53409;SDS011;66590;50.734;4.246;2023-11-19T07:37:00;31.98;;;5.32;;
53409;SDS011;66590;50.734;4.246;2023-11-19T07:39:34;25.52;;;5.60;;
53409;SDS011;66590;50.734;4.246;2023-11-19T07:42:07;22.90;;;4.68;;
53409;SDS011;66590;50.734;4.246;2023-11-19T07:44:34;28.23;;;5.22;;
53409;SDS011;66590;50.734;4.246;2023-11-19T07:47:07;28.35;;;5.47;;
53409;SDS011;66590;50.734;4.246;2023-11-19T07:49:35;24.95;;;4.88;;
53409;SDS011;66590;50.734;4.246;2023-11-19T07:52:02;30.45;;;5.65;;
53409;SDS011;66590;50.734;4.246;2023-11-19T07:54:39;27.92;;;4.80;;
53409;SDS011;66590;50.734;4.246;2023-11-19T07:57:06;24.13;;;4.35;;
53409;SDS011;66590;50.734;4.246;2023-11-19T07:59:40;21.45;;;4.53;;
53409;SDS011;66590;50.734;4.246;2023-11-19T08:02:13;26.38;;;4.60;;
53409;SDS011;66590;50.734;4.246;2023-11-19T08:04:41;28.13;;;5.72;;
53409;SDS011;66590;50.734;4.246;2023-11-19T08:07:15;27.10;;;4.50;;
53409;SDS011;66590;50.734;4.246;2023-11-19T08:09:49;25.33;;;4.70;;
53409;SDS011;66590;50.734;4.246;2023-11-19T08:12:22;31.92;;;5.32;;
53409;SDS011;66590;50.734;4.246;2023-11-19T08:14:48;24.70;;;4.72;;
53409;SDS011;66590;50.734;4.246;2023-11-19T08:17:15;24.60;;;5.25;;
53409;SDS011;66590;50.734;4.246;2023-11-19T08:19:50;30.80;;;6.65;;
53409;SDS011;66590;50.734;4.246;2023-11-19T08:24:57;26.85;;;5.60;;
53409;SDS011;66590;50.734;4.246;2023-11-19T08:27:30;25.52;;;4.18;;
53409;SDS011;66590;50.734;4.246;2023-11-19T08:29:56;23.10;;;5.20;;
53409;SDS011;66590;50.734;4.246;2023-11-19T08:32:30;25.65;;;5.13;;
53409;SDS011;66590;50.734;4.246;2023-11-19T08:34:58;26.75;;;5.25;;
53409;SDS011;66590;50.734;4.246;2023-11-19T08:37:32;28.10;;;5.57;;
53409;SDS011;66590;50.734;4.246;2023-11-19T08:39:59;25.77;;;4.78;;
53409;SDS011;66590;50.734;4.246;2023-11-19T08:42:33;23.95;;;4.32;;
53409;SDS011;66590;50.734;4.246;2023-11-19T08:45:07;19.13;;;4.30;;
53409;SDS011;66590;50.734;4.246;2023-11-19T08:47:41;18.73;;;4.23;;
53409;SDS011;66590;50.734;4.246;2023-11-19T08:50:15;21.52;;;4.43;;
53409;SDS011;66590;50.734;4.246;2023-11-19T08:52:49;25.25;;;4.50;;
53409;SDS011;66590;50.734;4.246;2023-11-19T08:55:23;20.58;;;5.13;;
53409;SDS011;66590;50.734;4.246;2023-11-19T08:57:56;15.32;;;4.07;;
53409;SDS011;66590;50.734;4.246;2023-11-19T09:00:29;13.85;;;3.72;;
53409;SDS011;66590;50.734;4.246;2023-11-19T09:03:03;19.20;;;4.57;;
53409;SDS011;66590;50.734;4.246;2023-11-19T09:05:38;16.67;;;2.75;;
53409;SDS011;66590;50.734;4.246;2023-11-19T09:08:12;20.05;;;4.22;;
53409;SDS011;66590;50.734;4.246;2023-11-19T09:10:39;20.60;;;4.45;;
53409;SDS011;66590;50.734;4.246;2023-11-19T09:13:13;21.98;;;4.53;;
53409;SDS011;66590;50.734;4.246;2023-11-19T09:15:39;19.45;;;4.40;;
53409;SDS011;66590;50.734;4.246;2023-11-19T09:18:13;24.95;;;5.07;;
53409;SDS011;66590;50.734;4.246;2023-11-19T09:20:41;21.30;;;4.90;;
53409;SDS011;66590;50.734;4.246;2023-11-19T09:25:48;24.10;;;4.82;;
53409;SDS011;66590;50.734;4.246;2023-11-19T09:28:15;21.67;;;4.40;;
53409;SDS011;66590;50.734;4.246;2023-11-19T09:30:48;20.23;;;4.32;;
53409;SDS011;66590;50.734;4.246;2023-11-19T09:33:21;22.83;;;5.32;;
53409;SDS011;66590;50.734;4.246;2023-11-19T09:35:49;25.10;;;5.07;;
53409;SDS011;66590;50.734;4.246;2023-11-19T09:40:49;20.52;;;5.60;;
53409;SDS011;66590;50.734;4.246;2023-11-19T09:43:23;25.13;;;5.03;;
53409;SDS011;66590;50.734;4.246;2023-11-19T09:45:57;13.90;;;3.57;;
53409;SDS011;66590;50.734;4.246;2023-11-19T09:48:35;17.88;;;4.50;;
53409;SDS011;66590;50.734;4.246;2023-11-19T09:51:10;26.42;;;5.35;;
53409;SDS011;66590;50.734;4.246;2023-11-19T09:56:10;22.30;;;4.57;;
53409;SDS011;66590;50.734;4.246;2023-11-19T09:58:41;22.63;;;4.20;;
53409;SDS011;66590;50.734;4.246;2023-11-19T10:01:15;29.63;;;4.88;;
53409;SDS011;66590;50.734;4.246;2023-11-19T10:03:44;24.10;;;4.78;;
53409;SDS011;66590;50.734;4.246;2023-11-19T10:06:16;21.42;;;4.05;;
53409;SDS011;66590;50.734;4.246;2023-11-19T10:08:49;25.13;;;5.43;;
53409;SDS011;66590;50.734;4.246;2023-11-19T10:11:17;20.65;;;4.47;;
53409;SDS011;66590;50.734;4.246;2023-11-19T10:13:44;18.60;;;4.57;;
53409;SDS011;66590;50.734;4.246;2023-11-19T10:16:18;16.88;;;3.92;;
53409;SDS011;66590;50.734;4.246;2023-11-19T10:18:45;19.75;;;3.80;;
53409;SDS011;66590;50.734;4.246;2023-11-19T10:21:13;20.98;;;3.83;;
53409;SDS011;66590;50.734;4.246;2023-11-19T10:23:52;17.40;;;4.70;;
53409;SDS011;66590;50.734;4.246;2023-11-19T10:26:20;21.73;;;3.72;;
53409;SDS011;66590;50.734;4.246;2023-11-19T10:28:55;20.08;;;3.83;;
53409;SDS011;66590;50.734;4.246;2023-11-19T10:31:29;13.73;;;3.13;;
53409;SDS011;66590;50.734;4.246;2023-11-19T10:33:56;14.85;;;2.90;;
53409;SDS011;66590;50.734;4.246;2023-11-19T10:36:23;19.27;;;4.10;;
53409;SDS011;66590;50.734;4.246;2023-11-19T10:39:12;21.52;;;3.90;;
53409;SDS011;66590;50.734;4.246;2023-11-19T10:41:39;19.13;;;4.25;;
53409;SDS011;66590;50.734;4.246;2023-11-19T10:44:15;22.27;;;4.28;;
53409;SDS011;66590;50.734;4.246;2023-11-19T10:46:58;18.95;;;4.85;;
53409;SDS011;66590;50.734;4.246;2023-11-19T10:49:32;24.83;;;5.03;;
53409;SDS011;66590;50.734;4.246;2023-11-19T10:51:59;17.10;;;4.57;;
53409;SDS011;66590;50.734;4.246;2023-11-19T10:54:34;23.90;;;5.23;;
53409;SDS011;66590;50.734;4.246;2023-11-19T10:57:02;20.92;;;4.47;;
53409;SDS011;66590;50.734;4.246;2023-11-19T10:59:32;25.35;;;5.63;;
53409;SDS011;66590;50.734;4.246;2023-11-19T11:02:06;27.90;;;5.25;;
53409;SDS011;66590;50.734;4.246;2023-11-19T11:04:40;22.27;;;4.47;;
53409;SDS011;66590;50.734;4.246;2023-11-19T11:07:15;25.13;;;5.32;;
53409;SDS011;66590;50.734;4.246;2023-11-19T11:09:46;23.83;;;5.63;;
53409;SDS011;66590;50.734;4.246;2023-11-19T11:12:14;21.13;;;4.65;;
53409;SDS011;66590;50.734;4.246;2023-11-19T11:14:50;28.10;;;6.15;;
53409;SDS011;66590;50.734;4.246;2023-11-19T11:17:19;24.83;;;5.25;;
53409;SDS011;66590;50.734;4.246;2023-11-19T11:19:57;30.45;;;5.28;;
53409;SDS011;66590;50.734;4.246;2023-11-19T11:22:32;19.63;;;4.85;;
53409;SDS011;66590;50.734;4.246;2023-11-19T11:25:22;28.45;;;4.78;;
53409;SDS011;66590;50.734;4.246;2023-11-19T11:34:07;25.45;;;4.80;;
53409;SDS011;66590;50.734;4.246;2023-11-19T11:37:06;24.05;;;4.40;;
53409;SDS011;66590;50.734;4.246;2023-11-19T11:39:41;22.98;;;4.60;;
53409;SDS011;66590;50.734;4.246;2023-11-19T11:42:35;23.30;;;4.70;;
53409;SDS011;66590;50.734;4.246;2023-11-19T11:45:09;21.67;;;4.90;;
53409;SDS011;66590;50.734;4.246;2023-11-19T11:48:05;14.18;;;3.17;;
53409;SDS011;66590;50.734;4.246;2023-11-19T11:50:48;20.20;;;4.85;;
53409;SDS011;66590;50.734;4.246;2023-11-19T11:53:25;12.25;;;3.67;;
53409;SDS011;66590;50.734;4.246;2023-11-19T11:56:05;12.00;;;3.08;;
53409;SDS011;66590;50.734;4.246;2023-11-19T11:58:42;17.30;;;3.58;;
53409;SDS011;66590;50.734;4.246;2023-11-19T12:01:14;20.65;;;4.75;;
53409;SDS011;66590;50.734;4.246;2023-11-19T12:03:48;13.25;;;3.85;;
53409;SDS011;66590;50.734;4.246;2023-11-19T12:06:23;21.30;;;4.15;;
53409;SDS011;66590;50.734;4.246;2023-11-19T12:08:59;25.33;;;4.63;;
53409;SDS011;66590;50.734;4.246;2023-11-19T12:11:46;13.18;;;3.45;;
53409;SDS011;66590;50.734;4.246;2023-11-19T12:17:42;21.60;;;3.70;;
53409;SDS011;66590;50.734;4.246;2023-11-19T12:20:20;18.23;;;4.35;;
53409;SDS011;66590;50.734;4.246;2023-11-19T12:22:51;26.58;;;4.50;;
53409;SDS011;66590;50.734;4.246;2023-11-19T12:25:25;20.73;;;3.67;;
53409;SDS011;66590;50.734;4.246;2023-11-19T12:27:59;25.35;;;4.85;;
53409;SDS011;66590;50.734;4.246;2023-11-19T12:30:35;19.95;;;4.40;;
53409;SDS011;66590;50.734;4.246;2023-11-19T12:33:07;23.00;;;4.55;;
53409;SDS011;66590;50.734;4.246;2023-11-19T12:35:41;24.30;;;4.60;;
53409;SDS011;66590;50.734;4.246;2023-11-19T12:38:22;23.43;;;4.33;;
53409;SDS011;66590;50.734;4.246;2023-11-19T12:41:02;23.02;;;4.82;;
53409;SDS011;66590;50.734;4.246;2023-11-19T12:43:36;19.88;;;4.63;;
53409;SDS011;66590;50.734;4.246;2023-11-19T12:46:20;19.48;;;4.78;;
53409;SDS011;66590;50.734;4.246;2023-11-19T12:48:49;20.60;;;4.80;;
53409;SDS011;66590;50.734;4.246;2023-11-19T12:51:23;26.23;;;4.85;;
53409;SDS011;66590;50.734;4.246;2023-11-19T12:54:04;21.90;;;4.95;;
53409;SDS011;66590;50.734;4.246;2023-11-19T12:56:38;21.88;;;5.13;;
53409;SDS011;66590;50.734;4.246;2023-11-19T12:59:13;22.60;;;4.38;;
53409;SDS011;66590;50.734;4.246;2023-11-19T13:01:57;15.57;;;3.50;;
53409;SDS011;66590;50.734;4.246;2023-11-19T13:04:27;16.13;;;4.38;;
53409;SDS011;66590;50.734;4.246;2023-11-19T13:07:01;22.08;;;4.40;;
53409;SDS011;66590;50.734;4.246;2023-11-19T13:09:31;17.70;;;4.82;;
53409;SDS011;66590;50.734;4.246;2023-11-19T13:12:12;23.75;;;5.40;;
53409;SDS011;66590;50.734;4.246;2023-11-19T13:14:40;23.45;;;4.82;;
53409;SDS011;66590;50.734;4.246;2023-11-19T13:17:15;22.13;;;4.22;;
53409;SDS011;66590;50.734;4.246;2023-11-19T13:19:42;17.02;;;3.88;;
53409;SDS011;66590;50.734;4.246;2023-11-19T13:22:16;18.88;;;4.68;;
53409;SDS011;66590;50.734;4.246;2023-11-19T13:24:42;25.52;;;5.53;;
53409;SDS011;66590;50.734;4.246;2023-11-19T13:27:09;29.35;;;5.45;;
53409;SDS011;66590;50.734;4.246;2023-11-19T13:29:43;20.27;;;4.88;;
53409;SDS011;66590;50.734;4.246;2023-11-19T13:32:10;29.75;;;5.82;;
53409;SDS011;66590;50.734;4.246;2023-11-19T13:34:44;28.55;;;6.00;;
53409;SDS011;66590;50.734;4.246;2023-11-19T13:37:11;23.73;;;5.35;;
53409;SDS011;66590;50.734;4.246;2023-11-19T13:39:51;25.83;;;5.28;;
53409;SDS011;66590;50.734;4.246;2023-11-19T13:42:25;32.22;;;6.05;;
53409;SDS011;66590;50.734;4.246;2023-11-19T13:44:59;24.25;;;4.97;;
53409;SDS011;66590;50.734;4.246;2023-11-19T13:47:32;21.75;;;5.00;;
53409;SDS011;66590;50.734;4.246;2023-11-19T13:50:00;28.17;;;5.70;;
53409;SDS011;66590;50.734;4.246;2023-11-19T13:52:34;23.48;;;5.00;;
53409;SDS011;66590;50.734;4.246;2023-11-19T13:55:01;24.38;;;4.47;;
53409;SDS011;66590;50.734;4.246;2023-11-19T13:57:29;32.13;;;5.40;;
53409;SDS011;66590;50.734;4.246;2023-11-19T14:00:03;16.17;;;4.03;;
53409;SDS011;66590;50.734;4.246;2023-11-19T14:02:31;22.88;;;5.10;;
53409;SDS011;66590;50.734;4.246;2023-11-19T14:05:06;23.58;;;4.82;;
53409;SDS011;66590;50.734;4.246;2023-11-19T14:07:40;20.05;;;4.72;;
53409;SDS011;66590;50.734;4.246;2023-11-19T14:10:14;24.20;;;5.72;;
53409;SDS011;66590;50.734;4.246;2023-11-19T14:12:41;23.77;;;5.10;;
53409;SDS011;66590;50.734;4.246;2023-11-19T14:15:08;23.80;;;4.63;;
53409;SDS011;66590;50.734;4.246;2023-11-19T14:17:42;16.25;;;3.08;;
53409;SDS011;66590;50.734;4.246;2023-11-19T14:20:10;14.65;;;3.33;;
53409;SDS011;66590;50.734;4.246;2023-11-19T14:22:46;19.38;;;4.40;;
53409;SDS011;66590;50.734;4.246;2023-11-19T14:25:13;25.27;;;4.47;;
53409;SDS011;66590;50.734;4.246;2023-11-19T14:27:47;20.70;;;4.77;;
53409;SDS011;66590;50.734;4.246;2023-11-19T14:30:21;17.13;;;3.97;;
53409;SDS011;66590;50.734;4.246;2023-11-19T14:32:55;15.73;;;3.20;;
53409;SDS011;66590;50.734;4.246;2023-11-19T14:35:23;16.80;;;2.92;;
53409;SDS011;66590;50.734;4.246;2023-11-19T14:37:57;11.82;;;3.47;;
53409;SDS011;66590;50.734;4.246;2023-11-19T14:40:30;21.05;;;4.72;;
53409;SDS011;66590;50.734;4.246;2023-11-19T14:43:06;23.65;;;4.38;;
53409;SDS011;66590;50.734;4.246;2023-11-19T14:45:40;23.08;;;5.05;;
53409;SDS011;66590;50.734;4.246;2023-11-19T14:48:16;26.08;;;4.90;;
53409;SDS011;66590;50.734;4.246;2023-11-19T14:50:44;20.45;;;4.38;;
53409;SDS011;66590;50.734;4.246;2023-11-19T14:53:12;27.88;;;5.60;;
53409;SDS011;66590;50.734;4.246;2023-11-19T14:55:45;27.30;;;5.43;;
53409;SDS011;66590;50.734;4.246;2023-11-19T14:58:12;22.85;;;5.82;;
53409;SDS011;66590;50.734;4.246;2023-11-19T15:00:46;22.77;;;5.20;;
53409;SDS011;66590;50.734;4.246;2023-11-19T15:03:20;27.90;;;5.03;;
53409;SDS011;66590;50.734;4.246;2023-11-19T15:05:55;24.52;;;4.90;;
53409;SDS011;66590;50.734;4.246;2023-11-19T15:08:24;25.52;;;5.25;;
53409;SDS011;66590;50.734;4.246;2023-11-19T15:10:58;21.08;;;4.18;;
53409;SDS011;66590;50.734;4.246;2023-11-19T15:13:31;18.13;;;5.28;;
53409;SDS011;66590;50.734;4.246;2023-11-19T15:16:05;25.70;;;5.15;;
53409;SDS011;66590;50.734;4.246;2023-11-19T15:18:33;22.52;;;5.13;;
53409;SDS011;66590;50.734;4.246;2023-11-19T15:21:08;20.83;;;4.63;;
53409;SDS011;66590;50.734;4.246;2023-11-19T15:23:35;18.92;;;4.25;;
53409;SDS011;66590;50.734;4.246;2023-11-19T15:26:09;21.75;;;5.03;;
53409;SDS011;66590;50.734;4.246;2023-11-19T15:28:43;19.83;;;4.85;;